createdAt,value
2023-01-09T00:00:26.046Z,11.29
2023-01-09T00:01:25.994Z,11.27
2023-01-09T00:02:26.021Z,11.20
2023-01-09T00:03:25.975Z,11.34
2023-01-09T00:04:25.968Z,11.38
2023-01-09T00:05:26.016Z,11.09
2023-01-09T00:06:25.949Z,11.10
2023-01-09T00:07:25.936Z,11.01
2023-01-09T00:08:25.929Z,10.96
2023-01-09T00:09:25.914Z,11.09
2023-01-09T00:10:25.900Z,11.14
2023-01-09T00:11:25.929Z,11.01
2023-01-09T00:12:25.874Z,10.83
2023-01-09T00:13:25.861Z,10.86
2023-01-09T00:14:25.842Z,10.63
2023-01-09T00:15:25.897Z,10.74
2023-01-09T00:16:25.873Z,10.84
2023-01-09T00:17:25.828Z,10.95
2023-01-09T00:18:25.799Z,10.83
2023-01-09T00:19:25.809Z,10.95
2023-01-09T00:20:25.768Z,10.92
2023-01-09T00:21:25.769Z,10.84
2023-01-09T00:22:25.784Z,10.89
2023-01-09T00:23:25.744Z,11.02
2023-01-09T00:24:25.742Z,10.73
2023-01-09T00:25:25.727Z,10.71
2023-01-09T00:26:25.701Z,10.98
2023-01-09T00:27:25.741Z,11.03
2023-01-09T00:28:25.700Z,11.03
2023-01-09T00:29:25.682Z,11.03
2023-01-09T00:30:25.705Z,10.96
2023-01-09T00:31:25.659Z,10.96
2023-01-09T00:32:25.640Z,11.09
2023-01-09T00:33:25.651Z,11.20
2023-01-09T00:34:25.631Z,11.03
2023-01-09T00:35:25.634Z,10.89
2023-01-09T00:36:25.601Z,11.03
2023-01-09T00:37:25.595Z,10.99
2023-01-09T00:38:25.603Z,10.95
2023-01-09T00:39:25.577Z,11.02
2023-01-09T00:40:25.571Z,11.02
2023-01-09T00:41:25.544Z,11.07
2023-01-09T00:42:25.540Z,10.98
2023-01-09T00:43:25.532Z,11.03
2023-01-09T00:44:25.534Z,11.11
2023-01-09T00:45:25.504Z,10.96
2023-01-09T00:46:25.526Z,11.06
2023-01-09T00:47:25.470Z,10.92
2023-01-09T00:48:25.507Z,10.76
2023-01-09T00:49:25.501Z,10.94
2023-01-09T00:50:25.464Z,10.99
2023-01-09T00:51:25.443Z,11.19
2023-01-09T00:52:25.412Z,11.29
2023-01-09T00:53:25.407Z,11.02
2023-01-09T00:54:25.389Z,11.09
2023-01-09T00:55:25.383Z,11.02
2023-01-09T00:56:25.383Z,10.91
2023-01-09T00:57:25.355Z,10.84
2023-01-09T00:58:25.354Z,10.77
2023-01-09T00:59:25.344Z,10.88
2023-01-09T01:00:25.325Z,11.06
2023-01-09T01:01:25.450Z,10.92
2023-01-09T01:02:25.444Z,11.01
2023-01-09T01:03:25.297Z,11.07
2023-01-09T01:04:25.283Z,10.88
2023-01-09T01:05:25.281Z,11.11
2023-01-09T01:06:25.283Z,11.16
2023-01-09T01:07:25.284Z,11.03
2023-01-09T01:08:25.258Z,11.14
2023-01-09T01:09:25.249Z,11.32
2023-01-09T01:10:25.219Z,11.17
2023-01-09T01:11:25.210Z,11.13
2023-01-09T01:12:25.186Z,11.17
2023-01-09T01:13:25.262Z,10.99
2023-01-09T01:14:25.165Z,11.07
2023-01-09T01:15:25.159Z,11.16
2023-01-09T01:16:25.142Z,11.09
2023-01-09T01:17:25.147Z,11.21
2023-01-09T01:18:25.116Z,11.10
2023-01-09T01:19:25.137Z,11.16
2023-01-09T01:20:25.115Z,11.19
2023-01-09T01:21:25.123Z,11.20
2023-01-09T01:22:25.085Z,11.31
2023-01-09T01:23:25.087Z,11.24
2023-01-09T01:24:25.070Z,11.16
2023-01-09T01:25:25.104Z,11.07
2023-01-09T01:26:25.035Z,11.29
2023-01-09T01:27:25.045Z,11.20
2023-01-09T01:28:25.020Z,11.24
2023-01-09T01:29:25.000Z,11.31
2023-01-09T01:30:24.991Z,11.39
2023-01-09T01:31:25.042Z,11.36
2023-01-09T01:32:24.978Z,11.34
2023-01-09T01:33:24.961Z,11.21
2023-01-09T01:34:24.972Z,11.19
2023-01-09T01:35:24.944Z,11.34
2023-01-09T01:36:24.934Z,11.50
2023-01-09T01:37:24.943Z,11.53
2023-01-09T01:38:24.890Z,11.49
2023-01-09T01:39:24.894Z,11.54
2023-01-09T01:40:24.881Z,11.67
2023-01-09T01:41:24.861Z,11.68
2023-01-09T01:42:24.876Z,11.77
2023-01-09T01:43:24.870Z,11.65
2023-01-09T01:44:24.837Z,11.50
2023-01-09T01:45:24.828Z,11.43
2023-01-09T01:46:24.800Z,11.62
2023-01-09T01:47:24.796Z,11.50
2023-01-09T01:48:24.796Z,11.67
2023-01-09T01:49:24.808Z,11.59
2023-01-09T01:50:24.782Z,11.52
2023-01-09T01:51:24.752Z,11.68
2023-01-09T01:52:24.740Z,11.53
2023-01-09T01:53:24.744Z,11.65
2023-01-09T01:54:24.752Z,11.43
2023-01-09T01:55:24.700Z,11.34
2023-01-09T01:56:24.701Z,11.20
2023-01-09T01:57:24.672Z,11.13
2023-01-09T01:58:24.683Z,11.39
2023-01-09T01:59:24.673Z,11.52
2023-01-09T02:00:24.728Z,11.54
2023-01-09T02:01:24.733Z,11.50
2023-01-09T02:02:24.684Z,11.47
2023-01-09T02:03:24.627Z,11.41
2023-01-09T02:04:24.620Z,11.57
2023-01-09T02:05:24.598Z,11.46
2023-01-09T02:06:24.631Z,11.43
2023-01-09T02:07:24.647Z,11.62
2023-01-09T02:08:24.582Z,11.56
2023-01-09T02:09:24.553Z,11.64
2023-01-09T02:10:24.554Z,11.74
2023-01-09T02:11:24.526Z,11.54
2023-01-09T02:12:24.542Z,11.53
2023-01-09T02:13:24.507Z,11.57
2023-01-09T02:14:24.492Z,11.41
2023-01-09T02:15:24.490Z,11.44
2023-01-09T02:16:24.525Z,11.47
2023-01-09T02:17:24.459Z,11.59
2023-01-09T02:18:24.478Z,11.72
2023-01-09T02:19:24.463Z,11.83
2023-01-09T02:20:24.423Z,11.77
2023-01-09T02:21:24.423Z,11.54
2023-01-09T02:22:24.435Z,11.59
2023-01-09T02:23:24.426Z,11.68
2023-01-09T02:24:24.378Z,11.72
2023-01-09T02:25:24.366Z,11.75
2023-01-09T02:26:24.357Z,11.87
2023-01-09T02:27:24.350Z,11.99
2023-01-09T02:28:24.335Z,11.85
2023-01-09T02:29:24.345Z,11.59
2023-01-09T02:30:24.322Z,11.39
2023-01-09T02:31:24.326Z,11.28
2023-01-09T02:32:24.353Z,11.44
2023-01-09T02:33:24.276Z,11.50
2023-01-09T02:34:24.309Z,11.56
2023-01-09T02:35:24.264Z,11.70
2023-01-09T02:36:24.252Z,11.82
2023-01-09T02:37:24.245Z,11.86
2023-01-09T02:38:24.236Z,11.82
2023-01-09T02:39:24.202Z,11.82
2023-01-09T02:40:24.256Z,11.72
2023-01-09T02:41:24.188Z,11.57
2023-01-09T02:42:24.169Z,11.53
2023-01-09T02:43:24.162Z,11.67
2023-01-09T02:44:24.154Z,11.80
2023-01-09T02:45:24.142Z,11.75
2023-01-09T02:46:24.139Z,11.46
2023-01-09T02:47:24.110Z,11.43
2023-01-09T02:48:24.106Z,11.38
2023-01-09T02:49:24.107Z,11.24
2023-01-09T02:50:24.116Z,11.09
2023-01-09T02:51:24.074Z,11.07
2023-01-09T02:52:24.143Z,10.86
2023-01-09T02:53:24.071Z,10.96
2023-01-09T02:54:24.063Z,11.02
2023-01-09T02:55:24.022Z,11.14
2023-01-09T02:56:24.032Z,11.20
2023-01-09T02:57:24.010Z,11.31
2023-01-09T02:58:24.037Z,11.01
2023-01-09T02:59:24.018Z,10.99
2023-01-09T03:00:23.972Z,10.99
2023-01-09T03:01:24.051Z,10.98
2023-01-09T03:02:23.949Z,11.02
2023-01-09T03:03:24.005Z,11.02
2023-01-09T03:04:23.947Z,10.99
2023-01-09T03:05:23.925Z,10.94
2023-01-09T03:06:23.913Z,10.81
2023-01-09T03:07:23.891Z,11.01
2023-01-09T03:08:23.881Z,11.20
2023-01-09T03:09:23.933Z,11.27
2023-01-09T03:10:23.861Z,11.35
2023-01-09T03:11:23.857Z,11.41
2023-01-09T03:12:23.854Z,11.07
2023-01-09T03:13:23.851Z,10.91
2023-01-09T03:14:23.813Z,11.02
2023-01-09T03:15:23.827Z,11.02
2023-01-09T03:16:23.820Z,11.21
2023-01-09T03:17:23.790Z,11.31
2023-01-09T03:18:23.794Z,11.36
2023-01-09T03:19:23.753Z,11.34
2023-01-09T03:20:23.862Z,11.06
2023-01-09T03:21:23.755Z,11.01
2023-01-09T03:22:23.715Z,10.88
2023-01-09T03:23:23.725Z,10.70
2023-01-09T03:24:23.707Z,10.12
2023-01-09T03:25:23.696Z,10.09
2023-01-09T03:26:23.726Z,10.22
2023-01-09T03:27:23.672Z,10.42
2023-01-09T03:28:23.654Z,10.52
2023-01-09T03:29:23.636Z,10.55
2023-01-09T03:30:23.631Z,10.52
2023-01-09T03:31:23.664Z,10.65
2023-01-09T03:32:23.655Z,10.70
2023-01-09T03:33:23.603Z,10.42
2023-01-09T03:34:23.596Z,10.32
2023-01-09T03:35:23.591Z,10.28
2023-01-09T03:36:23.564Z,10.36
2023-01-09T03:37:23.573Z,10.59
2023-01-09T03:38:23.559Z,10.66
2023-01-09T03:39:23.535Z,10.65
2023-01-09T03:40:23.543Z,10.60
2023-01-09T03:41:23.519Z,10.65
2023-01-09T03:42:23.515Z,10.74
2023-01-09T03:43:23.479Z,10.73
2023-01-09T03:44:23.566Z,10.63
2023-01-09T03:45:23.473Z,10.53
2023-01-09T03:46:23.451Z,10.65
2023-01-09T03:47:23.470Z,10.73
2023-01-09T03:48:23.438Z,10.60
2023-01-09T03:49:23.425Z,10.36
2023-01-09T03:50:23.434Z,10.42
2023-01-09T03:51:23.399Z,10.65
2023-01-09T03:52:23.381Z,10.77
2023-01-09T03:53:23.383Z,10.86
2023-01-09T03:54:23.368Z,10.96
2023-01-09T03:55:23.399Z,10.89
2023-01-09T03:56:23.360Z,10.83
2023-01-09T03:57:23.342Z,10.77
2023-01-09T03:58:23.327Z,10.77
2023-01-09T03:59:23.307Z,10.81
2023-01-09T04:00:23.309Z,10.76
2023-01-09T04:01:23.445Z,10.63
2023-01-09T04:02:23.298Z,10.73
2023-01-09T04:03:23.271Z,10.88
2023-01-09T04:04:23.264Z,10.94
2023-01-09T04:05:23.247Z,10.89
2023-01-09T04:06:23.234Z,10.88
2023-01-09T04:07:23.246Z,10.68
2023-01-09T04:08:23.237Z,10.77
2023-01-09T04:09:23.204Z,10.98
2023-01-09T04:10:23.184Z,11.16
2023-01-09T04:11:23.189Z,10.80
2023-01-09T04:12:23.173Z,10.68
2023-01-09T04:13:23.180Z,10.46
2023-01-09T04:14:23.154Z,10.62
2023-01-09T04:15:23.124Z,10.77
2023-01-09T04:16:23.146Z,10.92
2023-01-09T04:17:23.107Z,10.62
2023-01-09T04:18:23.118Z,10.53
2023-01-09T04:19:23.104Z,10.42
2023-01-09T04:20:23.095Z,10.52
2023-01-09T04:21:23.071Z,10.63
2023-01-09T04:22:23.079Z,10.92
2023-01-09T04:23:23.045Z,11.01
2023-01-09T04:24:23.063Z,11.13
2023-01-09T04:25:23.017Z,10.88
2023-01-09T04:26:23.013Z,10.83
2023-01-09T04:27:22.993Z,10.37
2023-01-09T04:28:22.992Z,10.18
2023-01-09T04:29:22.977Z,10.25
2023-01-09T04:30:23.002Z,10.36
2023-01-09T04:31:22.972Z,10.26
2023-01-09T04:32:22.941Z,9.88
2023-01-09T04:33:22.930Z,10.12
2023-01-09T04:34:22.922Z,9.93
2023-01-09T04:35:22.934Z,10.04
2023-01-09T04:36:22.888Z,10.06
2023-01-09T04:37:22.884Z,9.99
2023-01-09T04:38:22.877Z,10.24
2023-01-09T04:39:22.859Z,9.91
2023-01-09T04:40:22.861Z,10.15
2023-01-09T04:41:22.872Z,10.12
2023-01-09T04:42:22.836Z,10.36
2023-01-09T04:43:22.809Z,10.47
2023-01-09T04:44:22.831Z,10.68
2023-01-09T04:45:22.806Z,10.42
2023-01-09T04:46:22.787Z,10.30
2023-01-09T04:47:22.788Z,10.12
2023-01-09T04:48:22.763Z,10.06
2023-01-09T04:49:22.753Z,10.12
2023-01-09T04:50:22.729Z,10.09
2023-01-09T04:51:22.731Z,10.33
2023-01-09T04:52:23.017Z,10.53
2023-01-09T04:53:22.734Z,10.24
2023-01-09T04:54:22.742Z,10.37
2023-01-09T04:55:22.750Z,10.07
2023-01-09T04:56:22.780Z,10.04
2023-01-09T04:57:22.670Z,9.82
2023-01-09T04:58:22.670Z,9.85
2023-01-09T04:59:22.657Z,10.12
2023-01-09T05:00:22.667Z,10.40
2023-01-09T05:01:22.829Z,10.25
2023-01-09T05:02:22.600Z,10.25
2023-01-09T05:03:22.591Z,10.18
2023-01-09T05:04:22.685Z,10.18
2023-01-09T05:05:22.578Z,10.18
2023-01-09T05:06:22.563Z,10.14
2023-01-09T05:07:22.555Z,10.24
2023-01-09T05:08:22.557Z,10.26
2023-01-09T05:09:22.550Z,10.46
2023-01-09T05:10:22.521Z,10.55
2023-01-09T05:11:22.513Z,10.44
2023-01-09T05:12:22.531Z,10.46
2023-01-09T05:13:22.474Z,10.40
2023-01-09T05:14:22.484Z,10.44
2023-01-09T05:15:22.477Z,10.24
2023-01-09T05:16:22.485Z,10.33
2023-01-09T05:17:22.434Z,10.22
2023-01-09T05:18:22.429Z,10.09
2023-01-09T05:19:22.408Z,9.93
2023-01-09T05:20:22.393Z,10.12
2023-01-09T05:21:22.441Z,10.15
2023-01-09T05:22:22.399Z,10.06
2023-01-09T05:23:22.364Z,10.12
2023-01-09T05:24:22.374Z,10.03
2023-01-09T05:25:22.356Z,10.14
2023-01-09T05:26:22.355Z,10.26
2023-01-09T05:27:22.318Z,10.43
2023-01-09T05:28:22.357Z,10.28
2023-01-09T05:29:22.309Z,10.21
2023-01-09T05:30:22.305Z,10.28
2023-01-09T05:31:22.322Z,10.04
2023-01-09T05:32:22.310Z,10.09
2023-01-09T05:33:22.270Z,10.28
2023-01-09T05:34:22.247Z,10.25
2023-01-09T05:35:22.262Z,10.32
2023-01-09T05:36:22.264Z,10.28
2023-01-09T05:37:22.245Z,10.36
2023-01-09T05:38:22.205Z,10.32
2023-01-09T05:39:22.195Z,10.17
2023-01-09T05:40:26.661Z,10.19
2023-01-09T05:41:24.272Z,10.26
2023-01-09T05:42:22.163Z,10.30
2023-01-09T05:43:22.189Z,10.34
2023-01-09T05:44:22.182Z,10.28
2023-01-09T05:45:22.138Z,10.34
2023-01-09T05:46:22.094Z,10.39
2023-01-09T05:47:22.099Z,10.47
2023-01-09T05:48:22.087Z,10.36
2023-01-09T05:49:22.088Z,10.36
2023-01-09T05:50:22.063Z,10.36
2023-01-09T05:51:22.054Z,10.25
2023-01-09T05:52:22.036Z,10.03
2023-01-09T05:53:22.027Z,10.03
2023-01-09T05:54:22.018Z,10.03
2023-01-09T05:55:22.032Z,10.06
2023-01-09T05:56:22.014Z,10.00
2023-01-09T05:57:21.974Z,10.04
2023-01-09T05:58:21.963Z,10.10
2023-01-09T05:59:21.958Z,10.12
2023-01-09T06:00:21.982Z,9.93
2023-01-09T06:01:23.741Z,9.94
2023-01-09T06:02:22.068Z,10.00
2023-01-09T06:03:21.918Z,9.94
2023-01-09T06:04:21.888Z,9.86
2023-01-09T06:05:21.905Z,9.82
2023-01-09T06:06:21.922Z,9.89
2023-01-09T06:07:23.409Z,9.91
2023-01-09T06:08:21.851Z,10.00
2023-01-09T06:09:21.866Z,10.01
2023-01-09T06:10:21.837Z,10.10
2023-01-09T06:11:21.831Z,10.15
2023-01-09T06:12:21.842Z,10.17
2023-01-09T06:13:21.816Z,9.99
2023-01-09T06:14:21.792Z,9.88
2023-01-09T06:15:21.771Z,9.91
2023-01-09T06:16:21.857Z,9.96
2023-01-09T06:17:21.750Z,9.94
2023-01-09T06:18:21.786Z,9.97
2023-01-09T06:19:21.719Z,9.96
2023-01-09T06:20:21.718Z,10.00
2023-01-09T06:21:21.704Z,10.01
2023-01-09T06:22:21.708Z,9.94
2023-01-09T06:23:21.688Z,9.88
2023-01-09T06:24:21.696Z,9.61
2023-01-09T06:25:21.726Z,9.76
2023-01-09T06:26:21.641Z,9.79
2023-01-09T06:27:21.645Z,9.79
2023-01-09T06:28:21.676Z,9.91
2023-01-09T06:29:21.635Z,9.89
2023-01-09T06:30:21.757Z,9.75
2023-01-09T06:31:21.647Z,9.70
2023-01-09T06:32:21.587Z,9.68
2023-01-09T06:33:21.586Z,9.52
2023-01-09T06:34:21.557Z,9.56
2023-01-09T06:35:21.569Z,9.45
2023-01-09T06:36:22.586Z,9.38
2023-01-09T06:37:21.517Z,9.50
2023-01-09T06:38:21.505Z,9.24
2023-01-09T06:39:21.510Z,9.13
2023-01-09T06:40:21.510Z,9.28
2023-01-09T06:41:21.482Z,9.02
2023-01-09T06:42:21.513Z,8.90
2023-01-09T06:43:21.456Z,9.02
2023-01-09T06:44:21.440Z,9.10
2023-01-09T06:45:21.434Z,9.04
2023-01-09T06:46:21.504Z,9.06
2023-01-09T06:47:21.414Z,8.81
2023-01-09T06:48:21.434Z,8.90
2023-01-09T06:49:21.422Z,8.93
2023-01-09T06:50:21.375Z,9.04
2023-01-09T06:51:21.373Z,9.15
2023-01-09T06:52:21.399Z,9.01
2023-01-09T06:53:21.367Z,8.81
2023-01-09T06:54:21.346Z,8.71
2023-01-09T06:55:21.381Z,8.81
2023-01-09T06:56:21.311Z,8.69
2023-01-09T06:57:21.296Z,8.86
2023-01-09T06:58:21.294Z,8.72
2023-01-09T06:59:21.399Z,8.83
2023-01-09T07:00:21.265Z,9.10
2023-01-09T07:01:21.377Z,9.05
2023-01-09T07:02:21.246Z,8.96
2023-01-09T07:03:21.233Z,9.16
2023-01-09T07:04:21.240Z,9.06
2023-01-09T07:05:21.239Z,9.04
2023-01-09T07:06:21.215Z,9.01
2023-01-09T07:07:21.235Z,9.04
2023-01-09T07:08:21.176Z,9.06
2023-01-09T07:09:21.157Z,9.04
2023-01-09T07:10:21.169Z,8.79
2023-01-09T07:11:21.148Z,8.79
2023-01-09T07:12:21.134Z,8.90
2023-01-09T07:13:21.110Z,9.12
2023-01-09T07:14:21.123Z,8.99
2023-01-09T07:15:21.089Z,8.90
2023-01-09T07:16:21.158Z,8.87
2023-01-09T07:17:21.073Z,9.13
2023-01-09T07:18:21.075Z,9.35
2023-01-09T07:19:21.047Z,9.30
2023-01-09T07:20:21.056Z,9.24
2023-01-09T07:21:21.040Z,9.15
2023-01-09T07:22:21.050Z,9.05
2023-01-09T07:23:21.092Z,9.06
2023-01-09T07:24:20.999Z,9.28
2023-01-09T07:25:20.997Z,9.13
2023-01-09T07:26:20.967Z,9.28
2023-01-09T07:27:20.950Z,9.12
2023-01-09T07:28:21.013Z,9.23
2023-01-09T07:29:20.938Z,9.20
2023-01-09T07:30:20.933Z,9.21
2023-01-09T07:31:20.959Z,9.18
2023-01-09T07:32:20.896Z,9.20
2023-01-09T07:33:20.968Z,9.06
2023-01-09T07:34:20.879Z,8.94
2023-01-09T07:35:20.872Z,9.21
2023-01-09T07:36:20.849Z,9.30
2023-01-09T07:37:20.844Z,9.40
2023-01-09T07:38:20.916Z,9.38
2023-01-09T07:39:20.846Z,9.46
2023-01-09T07:40:20.838Z,9.58
2023-01-09T07:41:20.828Z,9.31
2023-01-09T07:42:20.797Z,9.43
2023-01-09T07:43:20.764Z,9.38
2023-01-09T07:44:20.796Z,9.57
2023-01-09T07:45:20.763Z,9.49
2023-01-09T07:46:20.853Z,9.66
2023-01-09T07:47:20.745Z,9.64
2023-01-09T07:48:20.728Z,9.70
2023-01-09T07:49:20.701Z,9.75
2023-01-09T07:50:20.743Z,9.53
2023-01-09T07:51:20.705Z,9.45
2023-01-09T07:52:20.683Z,9.35
2023-01-09T07:53:20.687Z,9.46
2023-01-09T07:54:20.661Z,9.50
2023-01-09T07:55:20.704Z,9.43
2023-01-09T07:56:20.652Z,9.49
2023-01-09T07:57:20.634Z,9.23
2023-01-09T07:58:20.623Z,9.27
2023-01-09T07:59:20.607Z,9.34
2023-01-09T08:00:20.597Z,9.31
2023-01-09T08:01:20.704Z,9.53
2023-01-09T08:02:20.682Z,9.53
2023-01-09T08:03:20.563Z,9.50
2023-01-09T08:04:20.564Z,9.58
2023-01-09T08:05:20.533Z,9.50
2023-01-09T08:06:20.507Z,9.53
2023-01-09T08:07:20.506Z,9.76
2023-01-09T08:08:20.519Z,9.66
2023-01-09T08:09:20.474Z,9.68
2023-01-09T08:10:20.467Z,9.42
2023-01-09T08:11:20.463Z,9.46
2023-01-09T08:12:20.449Z,9.49
2023-01-09T08:13:20.445Z,9.63
2023-01-09T08:14:20.487Z,9.68
2023-01-09T08:15:20.424Z,9.61
2023-01-09T08:16:20.449Z,9.49
2023-01-09T08:17:20.398Z,9.63
2023-01-09T08:18:20.374Z,9.81
2023-01-09T08:19:20.379Z,9.73
2023-01-09T08:20:20.369Z,9.57
2023-01-09T08:21:20.336Z,9.49
2023-01-09T08:22:20.348Z,9.68
2023-01-09T08:23:20.315Z,9.64
2023-01-09T08:24:20.340Z,9.75
2023-01-09T08:25:20.315Z,9.79
2023-01-09T08:26:20.317Z,9.86
2023-01-09T08:27:20.286Z,9.97
2023-01-09T08:28:20.295Z,9.73
2023-01-09T08:29:20.246Z,9.75
2023-01-09T08:30:20.266Z,9.83
2023-01-09T08:31:20.265Z,9.81
2023-01-09T08:32:20.240Z,9.88
2023-01-09T08:33:20.228Z,9.78
2023-01-09T08:34:20.197Z,9.76
2023-01-09T08:35:20.190Z,9.82
2023-01-09T08:36:20.224Z,9.75
2023-01-09T08:37:20.196Z,9.60
2023-01-09T08:38:20.167Z,9.58
2023-01-09T08:39:20.153Z,9.60
2023-01-09T08:40:20.136Z,9.70
2023-01-09T08:41:20.126Z,9.49
2023-01-09T08:42:20.107Z,9.63
2023-01-09T08:43:20.162Z,9.64
2023-01-09T08:44:20.073Z,9.79
2023-01-09T08:45:20.071Z,9.64
2023-01-09T08:46:20.119Z,9.64
2023-01-09T08:47:20.053Z,9.76
2023-01-09T08:48:20.046Z,9.96
2023-01-09T08:49:20.056Z,10.09
2023-01-09T08:50:20.011Z,10.06
2023-01-09T08:51:20.002Z,9.99
2023-01-09T08:52:19.984Z,9.71
2023-01-09T08:53:19.983Z,9.58
2023-01-09T08:54:19.961Z,9.73
2023-01-09T08:55:19.972Z,9.78
2023-01-09T08:56:19.962Z,9.76
2023-01-09T08:57:19.946Z,9.57
2023-01-09T08:58:19.952Z,9.63
2023-01-09T08:59:19.914Z,9.73
2023-01-09T09:00:19.950Z,9.78
2023-01-09T09:01:19.944Z,9.88
2023-01-09T09:02:19.903Z,9.89
2023-01-09T09:03:19.874Z,10.01
2023-01-09T09:04:19.852Z,9.83
2023-01-09T09:05:19.849Z,9.85
2023-01-09T09:06:21.914Z,10.12
2023-01-09T09:07:19.834Z,10.25
2023-01-09T09:08:19.828Z,10.09
2023-01-09T09:09:19.802Z,10.12
2023-01-09T09:10:19.819Z,10.07
2023-01-09T09:11:19.773Z,10.18
2023-01-09T09:12:19.799Z,10.25
2023-01-09T09:13:19.755Z,10.42
2023-01-09T09:14:19.743Z,10.47
2023-01-09T09:15:19.740Z,10.59
2023-01-09T09:16:19.802Z,10.55
2023-01-09T09:17:19.729Z,10.52
2023-01-09T09:18:19.720Z,10.34
2023-01-09T09:19:19.699Z,10.34
2023-01-09T09:20:19.675Z,10.51
2023-01-09T09:21:19.684Z,10.12
2023-01-09T09:22:19.673Z,9.91
2023-01-09T09:23:19.641Z,9.82
2023-01-09T09:24:19.664Z,10.01
2023-01-09T09:25:19.615Z,9.82
2023-01-09T09:26:19.613Z,9.93
2023-01-09T09:27:19.609Z,9.94
2023-01-09T09:28:19.586Z,10.10
2023-01-09T09:29:19.573Z,10.26
2023-01-09T09:30:19.713Z,10.26
2023-01-09T09:31:19.590Z,10.39
2023-01-09T09:32:19.536Z,10.55
2023-01-09T09:33:19.516Z,10.70
2023-01-09T09:34:19.536Z,10.44
2023-01-09T09:35:19.505Z,10.28
2023-01-09T09:36:19.518Z,10.37
2023-01-09T09:37:19.500Z,10.43
2023-01-09T09:38:19.476Z,10.55
2023-01-09T09:39:19.469Z,10.40
2023-01-09T09:40:19.459Z,10.51
2023-01-09T09:41:19.498Z,10.40
2023-01-09T09:42:19.457Z,10.55
2023-01-09T09:43:19.409Z,10.66
2023-01-09T09:44:19.405Z,10.68
2023-01-09T09:45:19.405Z,10.66
2023-01-09T09:46:19.462Z,10.59
2023-01-09T09:47:19.370Z,10.78
2023-01-09T09:48:19.358Z,10.94
2023-01-09T09:49:19.372Z,10.98
2023-01-09T09:50:19.341Z,10.91
2023-01-09T09:51:19.333Z,10.92
2023-01-09T09:52:19.357Z,10.73
2023-01-09T09:53:19.307Z,10.78
2023-01-09T09:54:19.289Z,10.77
2023-01-09T09:55:19.276Z,10.81
2023-01-09T09:56:19.269Z,10.94
2023-01-09T09:57:19.251Z,11.09
2023-01-09T09:58:19.274Z,10.94
2023-01-09T09:59:19.247Z,10.89
2023-01-09T10:00:19.234Z,10.89
2023-01-09T10:01:19.212Z,10.80
2023-01-09T10:02:19.213Z,10.78
2023-01-09T10:03:26.209Z,10.76
2023-01-09T10:04:22.001Z,10.76
2023-01-09T10:05:19.166Z,10.89
2023-01-09T10:06:19.164Z,10.99
2023-01-09T10:07:19.160Z,10.96
2023-01-09T10:08:19.139Z,11.07
2023-01-09T10:09:19.160Z,10.88
2023-01-09T10:10:19.147Z,11.02
2023-01-09T10:11:19.093Z,11.47
2023-01-09T10:12:19.083Z,11.64
2023-01-09T10:13:19.071Z,11.35
2023-01-09T10:14:24.223Z,11.46
2023-01-09T10:15:20.081Z,11.50
2023-01-09T10:16:19.048Z,11.59
2023-01-09T10:17:19.042Z,11.49
2023-01-09T10:18:19.024Z,11.27
2023-01-09T10:19:19.003Z,11.01
2023-01-09T10:20:19.015Z,11.06
2023-01-09T10:21:18.984Z,11.01
2023-01-09T10:22:18.987Z,11.39
2023-01-09T10:23:18.971Z,11.64
2023-01-09T10:24:18.953Z,11.77
2023-01-09T10:25:18.935Z,11.56
2023-01-09T10:26:18.964Z,11.75
2023-01-09T10:27:18.933Z,11.77
2023-01-09T10:28:18.904Z,11.50
2023-01-09T10:29:18.921Z,11.61
2023-01-09T10:30:18.864Z,11.46
2023-01-09T10:31:18.948Z,11.17
2023-01-09T10:32:18.862Z,11.28
2023-01-09T10:33:18.835Z,11.27
2023-01-09T10:34:18.825Z,11.13
2023-01-09T10:35:18.824Z,11.02
2023-01-09T10:36:18.807Z,10.88
2023-01-09T10:37:18.830Z,11.07
2023-01-09T10:38:18.789Z,11.11
2023-01-09T10:39:18.776Z,11.10
2023-01-09T10:40:18.761Z,11.20
2023-01-09T10:41:18.746Z,11.41
2023-01-09T10:42:18.800Z,11.27
2023-01-09T10:43:18.718Z,11.24
2023-01-09T10:44:18.725Z,11.27
2023-01-09T10:45:18.706Z,11.17
2023-01-09T10:46:18.768Z,11.09
2023-01-09T10:47:18.687Z,11.19
2023-01-09T10:48:18.728Z,11.34
2023-01-09T10:49:18.655Z,11.34
2023-01-09T10:50:18.652Z,11.27
2023-01-09T10:51:18.661Z,11.38
2023-01-09T10:52:18.621Z,11.52
2023-01-09T10:53:18.616Z,11.52
2023-01-09T10:54:18.651Z,11.74
2023-01-09T10:55:18.601Z,11.78
2023-01-09T10:56:18.577Z,11.70
2023-01-09T10:57:18.600Z,11.44
2023-01-09T10:58:18.545Z,11.46
2023-01-09T10:59:18.546Z,11.44
2023-01-09T11:00:18.568Z,11.80
2023-01-09T11:01:18.539Z,12.15
2023-01-09T11:02:18.576Z,12.16
2023-01-09T11:03:18.564Z,11.89
2023-01-09T11:04:18.493Z,11.75
2023-01-09T11:05:18.499Z,11.68
2023-01-09T11:06:18.460Z,11.67
2023-01-09T11:07:18.479Z,11.36
2023-01-09T11:08:18.457Z,11.44
2023-01-09T11:09:18.441Z,11.29
2023-01-09T11:10:18.496Z,11.20
2023-01-09T11:11:18.431Z,11.32
2023-01-09T11:12:18.424Z,11.44
2023-01-09T11:13:18.411Z,11.47
2023-01-09T11:14:18.418Z,11.49
2023-01-09T11:15:18.389Z,11.68
2023-01-09T11:16:18.418Z,11.78
2023-01-09T11:17:18.416Z,11.74
2023-01-09T11:18:18.327Z,11.74
2023-01-09T11:19:18.426Z,11.56
2023-01-09T11:20:18.370Z,11.56
2023-01-09T11:21:18.297Z,11.28
2023-01-09T11:22:18.431Z,11.36
2023-01-09T11:23:18.274Z,11.38
2023-01-09T11:24:18.263Z,11.27
2023-01-09T11:25:18.271Z,11.29
2023-01-09T11:26:18.276Z,11.46
2023-01-09T11:27:18.223Z,11.44
2023-01-09T11:28:18.227Z,11.61
2023-01-09T11:29:18.193Z,11.59
2023-01-09T11:30:18.264Z,11.80
2023-01-09T11:31:18.199Z,11.99
2023-01-09T11:32:18.194Z,12.15
2023-01-09T11:33:18.160Z,12.24
2023-01-09T11:34:18.165Z,12.23
2023-01-09T11:35:18.139Z,12.13
2023-01-09T11:36:18.181Z,12.33
2023-01-09T11:37:18.116Z,12.39
2023-01-09T11:38:18.116Z,12.30
2023-01-09T11:39:18.075Z,12.24
2023-01-09T11:40:18.206Z,12.54
2023-01-09T11:41:18.066Z,12.39
2023-01-09T11:42:18.083Z,12.30
2023-01-09T11:43:18.077Z,12.34
2023-01-09T11:44:18.027Z,12.41
2023-01-09T11:45:18.048Z,12.69
2023-01-09T11:46:18.049Z,12.87
2023-01-09T11:47:17.996Z,12.71
2023-01-09T11:48:18.055Z,12.29
2023-01-09T11:49:17.999Z,12.12
2023-01-09T11:50:18.015Z,12.23
2023-01-09T11:51:17.989Z,12.12
2023-01-09T11:52:17.934Z,12.26
2023-01-09T11:53:17.950Z,12.21
2023-01-09T11:54:17.939Z,12.42
2023-01-09T11:55:18.096Z,12.42
2023-01-09T11:56:17.929Z,12.26
2023-01-09T11:57:17.914Z,12.04
2023-01-09T11:58:17.898Z,11.90
2023-01-09T11:59:17.855Z,11.97
2023-01-09T12:00:17.839Z,11.77
2023-01-09T12:01:17.829Z,11.72
2023-01-09T12:02:17.912Z,11.71
2023-01-09T12:03:17.884Z,11.75
2023-01-09T12:04:17.803Z,11.80
2023-01-09T12:05:17.803Z,11.78
2023-01-09T12:06:17.845Z,11.89
2023-01-09T12:07:17.780Z,11.65
2023-01-09T12:08:18.252Z,11.64
2023-01-09T12:09:17.760Z,11.72
2023-01-09T12:10:17.722Z,11.72
2023-01-09T12:11:17.715Z,11.99
2023-01-09T12:12:18.491Z,12.30
2023-01-09T12:13:17.706Z,12.46
2023-01-09T12:14:17.705Z,12.29
2023-01-09T12:15:17.697Z,12.44
2023-01-09T12:16:17.770Z,12.15
2023-01-09T12:17:17.678Z,12.19
2023-01-09T12:18:17.792Z,12.20
2023-01-09T12:19:17.641Z,12.23
2023-01-09T12:20:17.656Z,12.01
2023-01-09T12:21:17.904Z,11.99
2023-01-09T12:22:17.624Z,11.93
2023-01-09T12:23:17.603Z,12.23
2023-01-09T12:24:17.593Z,11.96
2023-01-09T12:25:17.552Z,11.97
2023-01-09T12:26:17.563Z,11.46
2023-01-09T12:27:17.571Z,11.53
2023-01-09T12:28:17.562Z,11.54
2023-01-09T12:29:17.525Z,12.05
2023-01-09T12:30:17.513Z,12.48
2023-01-09T12:31:17.504Z,12.70
2023-01-09T12:32:17.507Z,12.39
2023-01-09T12:33:17.489Z,12.69
2023-01-09T12:34:17.458Z,12.44
2023-01-09T12:35:17.459Z,12.29
2023-01-09T12:36:17.447Z,12.57
2023-01-09T12:37:17.516Z,12.78
2023-01-09T12:38:17.445Z,12.88
2023-01-09T12:39:17.417Z,12.85
2023-01-09T12:40:17.392Z,12.77
2023-01-09T12:41:17.383Z,12.33
2023-01-09T12:42:17.368Z,12.04
2023-01-09T12:43:17.362Z,12.13
2023-01-09T12:44:27.379Z,11.62
2023-01-09T12:45:18.323Z,11.71
2023-01-09T12:46:17.320Z,12.12
2023-01-09T12:47:17.348Z,12.20
2023-01-09T12:48:17.339Z,12.54
2023-01-09T12:49:17.293Z,11.99
2023-01-09T12:50:17.302Z,11.82
2023-01-09T12:51:17.260Z,12.24
2023-01-09T12:52:17.282Z,12.13
2023-01-09T12:53:17.249Z,11.93
2023-01-09T12:54:17.242Z,12.19
2023-01-09T12:55:17.316Z,12.13
2023-01-09T12:56:17.395Z,11.97
2023-01-09T12:57:17.202Z,12.30
2023-01-09T12:58:17.187Z,12.30